sensor_id;sensor_type;location;lat;lon;timestamp;pressure;altitude;pressure_sealevel;temperature;humidity
51313;BME280;37397;53.226;10.400;2023-02-23T00:01:53;100762.25;;;10.31;78.30
51313;BME280;37397;53.226;10.400;2023-02-23T00:04:20;100753.38;;;10.29;78.05
51313;BME280;37397;53.226;10.400;2023-02-23T00:06:46;100746.09;;;10.28;78.07
51313;BME280;37397;53.226;10.400;2023-02-23T00:09:13;100751.63;;;10.31;78.04
51313;BME280;37397;53.226;10.400;2023-02-23T00:11:56;100754.97;;;10.30;78.14
51313;BME280;37397;53.226;10.400;2023-02-23T00:14:27;100750.69;;;10.25;78.13
51313;BME280;37397;53.226;10.400;2023-02-23T00:16:54;100750.22;;;10.27;78.05
51313;BME280;37397;53.226;10.400;2023-02-23T00:19:21;100745.47;;;10.23;78.17
51313;BME280;37397;53.226;10.400;2023-02-23T00:21:50;100743.91;;;10.22;77.99
51313;BME280;37397;53.226;10.400;2023-02-23T00:24:17;100748.31;;;10.23;78.12
51313;BME280;37397;53.226;10.400;2023-02-23T00:26:46;100749.63;;;10.22;78.37
51313;BME280;37397;53.226;10.400;2023-02-23T00:29:15;100758.16;;;10.22;78.02
51313;BME280;37397;53.226;10.400;2023-02-23T00:31:44;100762.59;;;10.23;78.17
51313;BME280;37397;53.226;10.400;2023-02-23T00:34:13;100765.13;;;10.21;78.24
51313;BME280;37397;53.226;10.400;2023-02-23T00:36:41;100761.50;;;10.21;78.20
51313;BME280;37397;53.226;10.400;2023-02-23T00:39:10;100763.53;;;10.20;78.02
51313;BME280;37397;53.226;10.400;2023-02-23T00:41:47;100758.31;;;10.19;78.21
51313;BME280;37397;53.226;10.400;2023-02-23T00:44:14;100763.53;;;10.20;78.20
51313;BME280;37397;53.226;10.400;2023-02-23T00:46:42;100753.09;;;10.17;78.36
51313;BME280;37397;53.226;10.400;2023-02-23T00:49:11;100760.38;;;10.18;78.34
51313;BME280;37397;53.226;10.400;2023-02-23T00:51:39;100755.94;;;10.17;78.11
51313;BME280;37397;53.226;10.400;2023-02-23T00:54:07;100755.16;;;10.17;78.27
51313;BME280;37397;53.226;10.400;2023-02-23T00:56:35;100755.66;;;10.15;78.27
51313;BME280;37397;53.226;10.400;2023-02-23T00:59:01;100749.94;;;10.15;78.20
51313;BME280;37397;53.226;10.400;2023-02-23T01:01:28;100750.91;;;10.12;78.25
51313;BME280;37397;53.226;10.400;2023-02-23T01:03:55;100754.09;;;10.14;78.45
51313;BME280;37397;53.226;10.400;2023-02-23T01:06:22;100762.31;;;10.12;78.35
51313;BME280;37397;53.226;10.400;2023-02-23T01:08:50;100761.81;;;10.14;78.27
51313;BME280;37397;53.226;10.400;2023-02-23T01:11:25;100765.16;;;10.12;78.34
51313;BME280;37397;53.226;10.400;2023-02-23T01:13:57;100760.75;;;10.11;78.36
51313;BME280;37397;53.226;10.400;2023-02-23T01:16:26;100755.19;;;10.08;78.16
51313;BME280;37397;53.226;10.400;2023-02-23T01:18:58;100761.69;;;10.08;78.36
51313;BME280;37397;53.226;10.400;2023-02-23T01:21:31;100748.88;;;10.03;78.42
51313;BME280;37397;53.226;10.400;2023-02-23T01:23:58;100759.31;;;10.07;78.20
51313;BME280;37397;53.226;10.400;2023-02-23T01:26:28;100748.88;;;10.03;78.21
51313;BME280;37397;53.226;10.400;2023-02-23T01:28:57;100747.78;;;10.01;78.08
51313;BME280;37397;53.226;10.400;2023-02-23T01:31:24;100743.97;;;10.04;78.23
51313;BME280;37397;53.226;10.400;2023-02-23T01:33:58;100744.13;;;10.00;78.12
51313;BME280;37397;53.226;10.400;2023-02-23T01:36:30;100753.00;;;10.02;78.27
51313;BME280;37397;53.226;10.400;2023-02-23T01:38:58;100749.06;;;10.00;78.31
51313;BME280;37397;53.226;10.400;2023-02-23T01:41:29;100749.06;;;10.00;77.93
51313;BME280;37397;53.226;10.400;2023-02-23T01:46:40;100746.34;;;9.96;78.22
51313;BME280;37397;53.226;10.400;2023-02-23T01:49:10;100742.72;;;9.96;78.13
51313;BME280;37397;53.226;10.400;2023-02-23T01:51:45;100746.81;;;9.95;78.13
51313;BME280;37397;53.226;10.400;2023-02-23T01:54:26;100738.75;;;9.93;78.09
51313;BME280;37397;53.226;10.400;2023-02-23T01:56:55;100742.72;;;9.96;78.22
51313;BME280;37397;53.226;10.400;2023-02-23T01:59:31;100739.75;;;9.90;77.96
51313;BME280;37397;53.226;10.400;2023-02-23T02:02:00;100733.06;;;9.93;78.13
51313;BME280;37397;53.226;10.400;2023-02-23T02:04:33;100742.09;;;9.92;78.04
51313;BME280;37397;53.226;10.400;2023-02-23T02:07:18;100734.81;;;9.91;78.20
51313;BME280;37397;53.226;10.400;2023-02-23T02:09:47;100730.38;;;9.90;78.09
51313;BME280;37397;53.226;10.400;2023-02-23T02:12:33;100741.47;;;9.88;78.22
51313;BME280;37397;53.226;10.400;2023-02-23T02:15:02;100737.03;;;9.86;78.28
51313;BME280;37397;53.226;10.400;2023-02-23T02:20:43;100733.56;;;9.82;78.06
51313;BME280;37397;53.226;10.400;2023-02-23T02:29:09;100731.69;;;9.79;78.08
51313;BME280;37397;53.226;10.400;2023-02-23T02:31:54;100732.94;;;9.78;78.08
51313;BME280;37397;53.226;10.400;2023-02-23T02:34:55;100729.00;;;9.76;78.06
51313;BME280;37397;53.226;10.400;2023-02-23T02:37:44;100721.06;;;9.71;78.20
51313;BME280;37397;53.226;10.400;2023-02-23T02:40:35;100725.03;;;9.73;78.26
51313;BME280;37397;53.226;10.400;2023-02-23T02:43:20;100723.94;;;9.71;78.12
51313;BME280;37397;53.226;10.400;2023-02-23T02:46:05;100723.44;;;9.72;78.24
51313;BME280;37397;53.226;10.400;2023-02-23T02:51:21;100727.72;;;9.67;78.24
51313;BME280;37397;53.226;10.400;2023-02-23T02:53:59;100729.78;;;9.67;78.22
51313;BME280;37397;53.226;10.400;2023-02-23T02:56:35;100719.69;;;9.66;78.24
51313;BME280;37397;53.226;10.400;2023-02-23T02:59:17;100719.81;;;9.62;78.33
51313;BME280;37397;53.226;10.400;2023-02-23T03:02:05;100725.06;;;9.64;78.26
51313;BME280;37397;53.226;10.400;2023-02-23T03:04:50;100715.91;;;9.60;78.18
51313;BME280;37397;53.226;10.400;2023-02-23T03:07:39;100725.22;;;9.60;78.03
51313;BME280;37397;53.226;10.400;2023-02-23T03:10:43;100721.25;;;9.58;77.98
51313;BME280;37397;53.226;10.400;2023-02-23T03:13:47;100715.91;;;9.51;78.18
51313;BME280;37397;53.226;10.400;2023-02-23T03:16:46;100725.88;;;9.55;78.44
51313;BME280;37397;53.226;10.400;2023-02-23T03:22:46;100722.38;;;9.51;78.28
51313;BME280;37397;53.226;10.400;2023-02-23T03:25:53;100719.69;;;9.47;78.41
51313;BME280;37397;53.226;10.400;2023-02-23T03:29:01;100725.41;;;9.47;78.62
51313;BME280;37397;53.226;10.400;2023-02-23T03:31:55;100722.53;;;9.47;78.53
51313;BME280;37397;53.226;10.400;2023-02-23T03:34:51;100725.41;;;9.47;78.56
51313;BME280;37397;53.226;10.400;2023-02-23T03:37:45;100717.00;;;9.44;78.56
51313;BME280;37397;53.226;10.400;2023-02-23T03:40:36;100720.97;;;9.46;78.59
51313;BME280;37397;53.226;10.400;2023-02-23T03:43:26;100723.81;;;9.46;78.68
51313;BME280;37397;53.226;10.400;2023-02-23T03:46:15;100716.72;;;9.42;78.76
51313;BME280;37397;53.226;10.400;2023-02-23T03:49:06;100726.34;;;9.44;78.75
51313;BME280;37397;53.226;10.400;2023-02-23T03:51:58;100726.03;;;9.42;78.58
51313;BME280;37397;53.226;10.400;2023-02-23T03:54:54;100724.75;;;9.43;78.71
51313;BME280;37397;53.226;10.400;2023-02-23T03:57:42;100734.59;;;9.42;78.88
51313;BME280;37397;53.226;10.400;2023-02-23T04:00:33;100736.16;;;9.43;78.74
51313;BME280;37397;53.226;10.400;2023-02-23T04:03:20;100731.44;;;9.40;79.01
51313;BME280;37397;53.226;10.400;2023-02-23T04:06:10;100721.91;;;9.43;79.02
51313;BME280;37397;53.226;10.400;2023-02-23T04:09:00;100726.03;;;9.42;78.87
51313;BME280;37397;53.226;10.400;2023-02-23T04:15:05;100728.56;;;9.40;79.02
51313;BME280;37397;53.226;10.400;2023-02-23T04:17:33;100725.72;;;9.40;78.85
51313;BME280;37397;53.226;10.400;2023-02-23T04:20:01;100722.06;;;9.40;78.89
51313;BME280;37397;53.226;10.400;2023-02-23T04:22:27;100723.34;;;9.39;79.05
51313;BME280;37397;53.226;10.400;2023-02-23T04:24:54;100733.00;;;9.41;78.87
51313;BME280;37397;53.226;10.400;2023-02-23T04:27:21;100725.09;;;9.36;78.87
51313;BME280;37397;53.226;10.400;2023-02-23T04:29:47;100736.31;;;9.40;79.07
51313;BME280;37397;53.226;10.400;2023-02-23T04:32:17;100723.66;;;9.41;78.91
51313;BME280;37397;53.226;10.400;2023-02-23T04:34:44;100734.59;;;9.42;78.75
51313;BME280;37397;53.226;10.400;2023-02-23T04:37:11;100722.53;;;9.38;79.03
51313;BME280;37397;53.226;10.400;2023-02-23T04:39:38;100727.28;;;9.41;78.87
51313;BME280;37397;53.226;10.400;2023-02-23T04:42:05;100727.28;;;9.41;78.92
51313;BME280;37397;53.226;10.400;2023-02-23T04:44:32;100729.84;;;9.39;78.96
51313;BME280;37397;53.226;10.400;2023-02-23T04:46:58;100726.50;;;9.41;79.01
51313;BME280;37397;53.226;10.400;2023-02-23T04:49:24;100714.47;;;9.37;78.72
51313;BME280;37397;53.226;10.400;2023-02-23T04:51:51;100727.28;;;9.41;78.86
51313;BME280;37397;53.226;10.400;2023-02-23T04:54:18;100721.59;;;9.41;78.82
51313;BME280;37397;53.226;10.400;2023-02-23T04:56:44;100718.44;;;9.39;78.94
51313;BME280;37397;53.226;10.400;2023-02-23T04:59:11;100723.84;;;9.37;78.93
51313;BME280;37397;53.226;10.400;2023-02-23T05:01:38;100719.38;;;9.36;78.90
51313;BME280;37397;53.226;10.400;2023-02-23T05:04:05;100731.44;;;9.40;78.93
51313;BME280;37397;53.226;10.400;2023-02-23T05:06:32;100726.34;;;9.35;78.92
51313;BME280;37397;53.226;10.400;2023-02-23T05:08:58;100723.50;;;9.35;78.88
51313;BME280;37397;53.226;10.400;2023-02-23T05:11:24;100719.38;;;9.36;78.95
51313;BME280;37397;53.226;10.400;2023-02-23T05:13:53;100723.34;;;9.39;78.91
51313;BME280;37397;53.226;10.400;2023-02-23T05:16:19;100717.81;;;9.35;78.97
51313;BME280;37397;53.226;10.400;2023-02-23T05:18:46;100726.69;;;9.37;78.82
51313;BME280;37397;53.226;10.400;2023-02-23T05:21:13;100711.31;;;9.35;78.80
51313;BME280;37397;53.226;10.400;2023-02-23T05:23:39;100720.97;;;9.37;78.99
51313;BME280;37397;53.226;10.400;2023-02-23T05:26:09;100724.63;;;9.38;78.68
51313;BME280;37397;53.226;10.400;2023-02-23T05:28:37;100723.03;;;9.37;78.86
51313;BME280;37397;53.226;10.400;2023-02-23T05:31:04;100730.78;;;9.36;78.86
51313;BME280;37397;53.226;10.400;2023-02-23T05:33:32;100736.47;;;9.36;78.84
51313;BME280;37397;53.226;10.400;2023-02-23T05:36:03;100738.53;;;9.36;78.81
51313;BME280;37397;53.226;10.400;2023-02-23T05:38:30;100727.16;;;9.36;79.19
51313;BME280;37397;53.226;10.400;2023-02-23T05:40:56;100734.09;;;9.35;78.96
51313;BME280;37397;53.226;10.400;2023-02-23T05:43:22;100714.34;;;9.31;78.85
51313;BME280;37397;53.226;10.400;2023-02-23T05:45:49;100721.13;;;9.34;78.95
51313;BME280;37397;53.226;10.400;2023-02-23T05:48:16;100712.56;;;9.34;78.88
51313;BME280;37397;53.226;10.400;2023-02-23T05:50:42;100713.38;;;9.34;78.82
51313;BME280;37397;53.226;10.400;2023-02-23T05:53:09;100717.50;;;9.33;78.80
51313;BME280;37397;53.226;10.400;2023-02-23T05:55:35;100717.19;;;9.31;78.92
51313;BME280;37397;53.226;10.400;2023-02-23T05:58:03;100723.66;;;9.31;78.68
51313;BME280;37397;53.226;10.400;2023-02-23T06:00:29;100718.44;;;9.30;78.88
51313;BME280;37397;53.226;10.400;2023-02-23T06:02:55;100716.38;;;9.30;78.91
51313;BME280;37397;53.226;10.400;2023-02-23T06:05:22;100726.50;;;9.31;78.92
51313;BME280;37397;53.226;10.400;2023-02-23T06:07:49;100724.59;;;9.28;78.88
51313;BME280;37397;53.226;10.400;2023-02-23T06:10:15;100741.53;;;9.32;78.96
51313;BME280;37397;53.226;10.400;2023-02-23T06:12:42;100742.16;;;9.27;78.91
51313;BME280;37397;53.226;10.400;2023-02-23T06:15:08;100740.91;;;9.28;78.93
51313;BME280;37397;53.226;10.400;2023-02-23T06:17:35;100754.69;;;9.29;78.76
51313;BME280;37397;53.226;10.400;2023-02-23T06:20:03;100750.72;;;9.27;78.80
51313;BME280;37397;53.226;10.400;2023-02-23T06:22:30;100760.84;;;9.28;78.81
51313;BME280;37397;53.226;10.400;2023-02-23T06:24:56;100752.31;;;9.28;78.88
51313;BME280;37397;53.226;10.400;2023-02-23T06:27:23;100752.78;;;9.26;78.91
51313;BME280;37397;53.226;10.400;2023-02-23T06:29:49;100752.31;;;9.28;78.79
51313;BME280;37397;53.226;10.400;2023-02-23T06:32:15;100761.00;;;9.24;78.94
51313;BME280;37397;53.226;10.400;2023-02-23T06:34:46;100766.22;;;9.26;78.87
51313;BME280;37397;53.226;10.400;2023-02-23T06:37:12;100771.94;;;9.26;78.91
51313;BME280;37397;53.226;10.400;2023-02-23T06:39:39;100766.22;;;9.26;78.80
51313;BME280;37397;53.226;10.400;2023-02-23T06:42:05;100771.94;;;9.26;78.84
51313;BME280;37397;53.226;10.400;2023-02-23T06:44:32;100777.28;;;9.24;78.85
51313;BME280;37397;53.226;10.400;2023-02-23T06:47:03;100777.63;;;9.26;78.93
51313;BME280;37397;53.226;10.400;2023-02-23T06:49:30;100779.19;;;9.27;78.90
51313;BME280;37397;53.226;10.400;2023-02-23T06:51:57;100776.34;;;9.27;79.01
51313;BME280;37397;53.226;10.400;2023-02-23T06:54:23;100779.19;;;9.27;79.04
51313;BME280;37397;53.226;10.400;2023-02-23T06:56:50;100776.81;;;9.25;78.94
51313;BME280;37397;53.226;10.400;2023-02-23T06:59:18;100776.03;;;9.25;79.07
51313;BME280;37397;53.226;10.400;2023-02-23T07:01:45;100770.66;;;9.27;78.93
51313;BME280;37397;53.226;10.400;2023-02-23T07:04:12;100773.50;;;9.27;78.95
51313;BME280;37397;53.226;10.400;2023-02-23T07:06:42;100773.19;;;9.25;78.99
51313;BME280;37397;53.226;10.400;2023-02-23T07:09:08;100776.34;;;9.27;79.12
51313;BME280;37397;53.226;10.400;2023-02-23T07:11:34;100780.47;;;9.26;79.07
51313;BME280;37397;53.226;10.400;2023-02-23T07:14:01;100779.19;;;9.27;79.16
51313;BME280;37397;53.226;10.400;2023-02-23T07:16:28;100786.16;;;9.26;79.09
51313;BME280;37397;53.226;10.400;2023-02-23T07:18:55;100793.44;;;9.27;79.10
51313;BME280;37397;53.226;10.400;2023-02-23T07:21:22;100791.03;;;9.25;79.18
51313;BME280;37397;53.226;10.400;2023-02-23T07:23:48;100793.91;;;9.25;79.19
51313;BME280;37397;53.226;10.400;2023-02-23T07:26:15;100805.63;;;9.27;79.29
51313;BME280;37397;53.226;10.400;2023-02-23T07:28:42;100796.28;;;9.27;79.35
51313;BME280;37397;53.226;10.400;2023-02-23T07:31:09;100799.13;;;9.27;79.26
51313;BME280;37397;53.226;10.400;2023-02-23T07:33:35;100810.84;;;9.29;79.20
51313;BME280;37397;53.226;10.400;2023-02-23T07:36:02;100804.50;;;9.25;79.28
51313;BME280;37397;53.226;10.400;2023-02-23T07:38:29;100816.03;;;9.30;79.31
51313;BME280;37397;53.226;10.400;2023-02-23T07:40:55;100808.94;;;9.26;79.26
51313;BME280;37397;53.226;10.400;2023-02-23T07:43:22;100820.66;;;9.28;79.10
51313;BME280;37397;53.226;10.400;2023-02-23T07:45:49;100818.88;;;9.30;79.43
51313;BME280;37397;53.226;10.400;2023-02-23T07:48:17;100815.41;;;9.26;79.37
51313;BME280;37397;53.226;10.400;2023-02-23T07:50:43;100825.41;;;9.31;79.32
51313;BME280;37397;53.226;10.400;2023-02-23T07:53:10;100822.53;;;9.31;79.46
51313;BME280;37397;53.226;10.400;2023-02-23T07:55:37;100820.66;;;9.28;79.40
51313;BME280;37397;53.226;10.400;2023-02-23T07:58:05;100829.81;;;9.32;79.45
51313;BME280;37397;53.226;10.400;2023-02-23T08:00:32;100831.41;;;9.33;79.37
51313;BME280;37397;53.226;10.400;2023-02-23T08:02:59;100823.63;;;9.34;79.52
51313;BME280;37397;53.226;10.400;2023-02-23T08:05:27;100822.88;;;9.33;79.53
51313;BME280;37397;53.226;10.400;2023-02-23T08:07:54;100835.38;;;9.36;79.57
51313;BME280;37397;53.226;10.400;2023-02-23T08:10:21;100830.94;;;9.35;79.38
51313;BME280;37397;53.226;10.400;2023-02-23T08:12:48;100831.72;;;9.35;79.55
51313;BME280;37397;53.226;10.400;2023-02-23T08:15:14;100834.09;;;9.37;79.76
51313;BME280;37397;53.226;10.400;2023-02-23T08:17:41;100831.72;;;9.35;79.73
51313;BME280;37397;53.226;10.400;2023-02-23T08:20:09;100822.69;;;9.37;79.67
51313;BME280;37397;53.226;10.400;2023-02-23T08:22:35;100824.75;;;9.36;79.78
51313;BME280;37397;53.226;10.400;2023-02-23T08:25:14;100823.81;;;9.39;79.73
51313;BME280;37397;53.226;10.400;2023-02-23T08:27:41;100822.56;;;9.40;79.86
51313;BME280;37397;53.226;10.400;2023-02-23T08:30:08;100833.16;;;9.40;79.73
51313;BME280;37397;53.226;10.400;2023-02-23T08:32:35;100829.03;;;9.41;80.02
51313;BME280;37397;53.226;10.400;2023-02-23T08:35:02;100831.41;;;9.42;80.22
51313;BME280;37397;53.226;10.400;2023-02-23T08:37:29;100831.91;;;9.41;80.13
51313;BME280;37397;53.226;10.400;2023-02-23T08:39:56;100831.09;;;9.40;79.80
51313;BME280;37397;53.226;10.400;2023-02-23T08:42:22;100835.38;;;9.45;79.90
51313;BME280;37397;53.226;10.400;2023-02-23T08:44:49;100841.88;;;9.45;80.05
51313;BME280;37397;53.226;10.400;2023-02-23T08:47:16;100838.53;;;9.47;79.94
51313;BME280;37397;53.226;10.400;2023-02-23T08:49:49;100838.53;;;9.47;79.92
51313;BME280;37397;53.226;10.400;2023-02-23T08:52:16;100839.03;;;9.45;80.14
51313;BME280;37397;53.226;10.400;2023-02-23T08:54:42;100846.63;;;9.48;80.11
51313;BME280;37397;53.226;10.400;2023-02-23T08:57:09;100845.34;;;9.49;80.37
51313;BME280;37397;53.226;10.400;2023-02-23T08:59:38;100845.69;;;9.52;80.26
51313;BME280;37397;53.226;10.400;2023-02-23T09:02:10;100847.25;;;9.53;80.30
51313;BME280;37397;53.226;10.400;2023-02-23T09:04:37;100841.53;;;9.53;80.13
51313;BME280;37397;53.226;10.400;2023-02-23T09:07:17;100851.22;;;9.55;80.17
51313;BME280;37397;53.226;10.400;2023-02-23T09:09:43;100849.78;;;9.51;80.22
51313;BME280;37397;53.226;10.400;2023-02-23T09:12:09;100850.75;;;9.57;80.26
51313;BME280;37397;53.226;10.400;2023-02-23T09:14:36;100850.28;;;9.58;80.24
51313;BME280;37397;53.226;10.400;2023-02-23T09:17:02;100853.59;;;9.57;80.25
51313;BME280;37397;53.226;10.400;2023-02-23T09:19:29;100849.47;;;9.58;80.12
51313;BME280;37397;53.226;10.400;2023-02-23T09:21:56;100856.75;;;9.59;80.11
51313;BME280;37397;53.226;10.400;2023-02-23T09:24:22;100846.59;;;9.58;80.13
51313;BME280;37397;53.226;10.400;2023-02-23T09:26:49;100857.06;;;9.61;80.35
51313;BME280;37397;53.226;10.400;2023-02-23T09:29:15;100854.22;;;9.61;80.23
51313;BME280;37397;53.226;10.400;2023-02-23T09:31:42;100851.84;;;9.59;80.10
51313;BME280;37397;53.226;10.400;2023-02-23T09:34:09;100851.69;;;9.63;80.18
51313;BME280;37397;53.226;10.400;2023-02-23T09:36:37;100863.09;;;9.63;80.12
51313;BME280;37397;53.226;10.400;2023-02-23T09:39:04;100853.25;;;9.64;80.09
51313;BME280;37397;53.226;10.400;2023-02-23T09:49:27;100850.09;;;9.62;80.22
51313;BME280;37397;53.226;10.400;2023-02-23T09:51:57;100860.56;;;9.65;80.10
51313;BME280;37397;53.226;10.400;2023-02-23T09:54:28;100855.63;;;9.65;80.23
51313;BME280;37397;53.226;10.400;2023-02-23T09:56:55;100858.78;;;9.67;80.16
51313;BME280;37397;53.226;10.400;2023-02-23T09:59:24;100866.88;;;9.69;80.28
51313;BME280;37397;53.226;10.400;2023-02-23T10:01:59;100865.31;;;9.68;80.05
51313;BME280;37397;53.226;10.400;2023-02-23T10:04:35;100865.31;;;9.68;79.95
51313;BME280;37397;53.226;10.400;2023-02-23T10:07:18;100857.22;;;9.66;80.19
51313;BME280;37397;53.226;10.400;2023-02-23T10:10:09;100862.78;;;9.70;80.05
51313;BME280;37397;53.226;10.400;2023-02-23T10:13:07;100859.59;;;9.68;80.06
51313;BME280;37397;53.226;10.400;2023-02-23T10:16:00;100869.25;;;9.71;80.23
51313;BME280;37397;53.226;10.400;2023-02-23T10:21:27;100865.94;;;9.72;80.26
51313;BME280;37397;53.226;10.400;2023-02-23T10:24:04;100871.63;;;9.72;80.15
51313;BME280;37397;53.226;10.400;2023-02-23T10:26:41;100877.66;;;9.74;80.11
51313;BME280;37397;53.226;10.400;2023-02-23T10:29:32;100871.63;;;9.72;80.04
51313;BME280;37397;53.226;10.400;2023-02-23T10:32:46;100873.88;;;9.77;80.12
51313;BME280;37397;53.226;10.400;2023-02-23T10:34:54;100878.44;;;9.75;80.13
51313;BME280;37397;53.226;10.400;2023-02-23T10:37:22;100874.66;;;9.78;80.07
51313;BME280;37397;53.226;10.400;2023-02-23T10:39:50;100865.78;;;9.76;80.11
51313;BME280;37397;53.226;10.400;2023-02-23T10:42:21;100859.28;;;9.75;80.13
51313;BME280;37397;53.226;10.400;2023-02-23T10:44:48;100872.59;;;9.78;80.18
51313;BME280;37397;53.226;10.400;2023-02-23T10:47:19;100870.38;;;9.82;80.07
51313;BME280;37397;53.226;10.400;2023-02-23T10:49:52;100869.09;;;9.83;80.04
51313;BME280;37397;53.226;10.400;2023-02-23T10:52:25;100864.34;;;9.80;79.93
51313;BME280;37397;53.226;10.400;2023-02-23T10:54:53;100868.78;;;9.81;80.16
51313;BME280;37397;53.226;10.400;2023-02-23T10:57:26;100869.44;;;9.85;80.06
51313;BME280;37397;53.226;10.400;2023-02-23T11:02:43;100863.72;;;9.85;80.01
51313;BME280;37397;53.226;10.400;2023-02-23T11:08:29;100865.16;;;9.90;79.94
51313;BME280;37397;53.226;10.400;2023-02-23T11:13:25;100873.22;;;9.92;79.79
51313;BME280;37397;53.226;10.400;2023-02-23T11:15:59;100869.41;;;9.95;80.10
51313;BME280;37397;53.226;10.400;2023-02-23T11:18:26;100869.09;;;9.93;80.07
51313;BME280;37397;53.226;10.400;2023-02-23T11:20:54;100871.31;;;9.98;80.04
51313;BME280;37397;53.226;10.400;2023-02-23T11:23:30;100864.03;;;9.97;79.97
51313;BME280;37397;53.226;10.400;2023-02-23T11:26:02;100862.28;;;9.99;80.12
51313;BME280;37397;53.226;10.400;2023-02-23T11:28:35;100861.81;;;10.01;79.76
51313;BME280;37397;53.226;10.400;2023-02-23T11:31:09;100867.03;;;10.02;79.96
51313;BME280;37397;53.226;10.400;2023-02-23T11:33:39;100865.00;;;10.03;79.95
51313;BME280;37397;53.226;10.400;2023-02-23T11:38:40;100864.34;;;10.08;79.90
51313;BME280;37397;53.226;10.400;2023-02-23T11:41:23;100864.50;;;10.04;79.67
51313;BME280;37397;53.226;10.400;2023-02-23T11:43:51;100860.53;;;10.11;79.70
51313;BME280;37397;53.226;10.400;2023-02-23T11:46:21;100856.09;;;10.10;79.63
51313;BME280;37397;53.226;10.400;2023-02-23T11:48:51;100855.94;;;10.14;79.53
51313;BME280;37397;53.226;10.400;2023-02-23T11:51:26;100852.75;;;10.12;79.33
51313;BME280;37397;53.226;10.400;2023-02-23T11:53:54;100851.03;;;10.14;79.57
51313;BME280;37397;53.226;10.400;2023-02-23T11:56:22;100851.03;;;10.14;79.54
51313;BME280;37397;53.226;10.400;2023-02-23T11:59:06;100849.44;;;10.13;79.17
51313;BME280;37397;53.226;10.400;2023-02-23T12:01:42;100858.59;;;10.17;79.31
51313;BME280;37397;53.226;10.400;2023-02-23T12:04:26;100854.19;;;10.16;79.16
51313;BME280;37397;53.226;10.400;2023-02-23T12:10:10;100858.31;;;10.15;79.32
51313;BME280;37397;53.226;10.400;2023-02-23T12:15:51;100855.16;;;10.13;79.08
51313;BME280;37397;53.226;10.400;2023-02-23T12:18:44;100849.44;;;10.13;79.24
51313;BME280;37397;53.226;10.400;2023-02-23T12:27:00;100839.63;;;10.14;79.13
51313;BME280;37397;53.226;10.400;2023-02-23T12:29:43;100841.19;;;10.15;79.12
51313;BME280;37397;53.226;10.400;2023-02-23T12:32:18;100835.50;;;10.15;79.18
51313;BME280;37397;53.226;10.400;2023-02-23T12:35:01;100839.16;;;10.16;79.01
51313;BME280;37397;53.226;10.400;2023-02-23T12:37:46;100836.31;;;10.16;78.98
51313;BME280;37397;53.226;10.400;2023-02-23T12:40:24;100844.34;;;10.17;79.06
51313;BME280;37397;53.226;10.400;2023-02-23T12:42:58;100839.47;;;10.18;79.02
51313;BME280;37397;53.226;10.400;2023-02-23T12:48:32;100843.25;;;10.15;78.73
51313;BME280;37397;53.226;10.400;2023-02-23T12:51:05;100843.88;;;10.19;78.80
51313;BME280;37397;53.226;10.400;2023-02-23T12:53:42;100845.94;;;10.18;78.79
51313;BME280;37397;53.226;10.400;2023-02-23T12:59:22;100842.78;;;10.16;78.57
51313;BME280;37397;53.226;10.400;2023-02-23T13:01:57;100839.47;;;10.18;78.58
51313;BME280;37397;53.226;10.400;2023-02-23T13:07:41;100844.34;;;10.17;78.51
51313;BME280;37397;53.226;10.400;2023-02-23T13:15:57;100844.03;;;10.15;78.34
51313;BME280;37397;53.226;10.400;2023-02-23T13:18:37;100840.59;;;10.11;78.47
51313;BME280;37397;53.226;10.400;2023-02-23T13:21:18;100842.47;;;10.14;78.42
51313;BME280;37397;53.226;10.400;2023-02-23T13:24:17;100845.47;;;10.11;78.26
51313;BME280;37397;53.226;10.400;2023-02-23T13:26:49;100847.84;;;10.12;78.43
51313;BME280;37397;53.226;10.400;2023-02-23T13:29:39;100840.59;;;10.11;78.37
51313;BME280;37397;53.226;10.400;2023-02-23T13:32:12;100838.03;;;10.13;78.62
51313;BME280;37397;53.226;10.400;2023-02-23T13:34:49;100842.16;;;10.12;78.41
51313;BME280;37397;53.226;10.400;2023-02-23T13:37:22;100836.44;;;10.12;78.47
51313;BME280;37397;53.226;10.400;2023-02-23T13:40:00;100833.28;;;10.10;78.44
51313;BME280;37397;53.226;10.400;2023-02-23T13:48:23;100843.56;;;10.08;78.24
51313;BME280;37397;53.226;10.400;2023-02-23T13:53:44;100843.56;;;10.08;78.25
51313;BME280;37397;53.226;10.400;2023-02-23T13:56:17;100837.25;;;10.03;78.20
51313;BME280;37397;53.226;10.400;2023-02-23T13:58:54;100841.53;;;10.08;78.29
51313;BME280;37397;53.226;10.400;2023-02-23T14:01:30;100846.44;;;10.08;78.28
51313;BME280;37397;53.226;10.400;2023-02-23T14:04:00;100839.94;;;10.07;78.32
51313;BME280;37397;53.226;10.400;2023-02-23T14:06:30;100845.66;;;10.07;78.35
51313;BME280;37397;53.226;10.400;2023-02-23T14:09:08;100837.56;;;10.06;78.13
51313;BME280;37397;53.226;10.400;2023-02-23T14:17:09;100825.06;;;10.03;78.40
51313;BME280;37397;53.226;10.400;2023-02-23T14:19:40;100832.66;;;10.06;78.37
51313;BME280;37397;53.226;10.400;2023-02-23T14:22:11;100833.47;;;10.07;78.65
51313;BME280;37397;53.226;10.400;2023-02-23T14:24:39;100831.56;;;10.03;78.23
51313;BME280;37397;53.226;10.400;2023-02-23T14:27:19;100839.34;;;10.03;78.26
51313;BME280;37397;53.226;10.400;2023-02-23T14:30:15;100837.75;;;10.02;78.46
51313;BME280;37397;53.226;10.400;2023-02-23T14:32:47;100838.53;;;10.02;78.49
51313;BME280;37397;53.226;10.400;2023-02-23T14:38:03;100837.75;;;10.02;78.21
51313;BME280;37397;53.226;10.400;2023-02-23T14:40:38;100841.06;;;10.00;78.10
51313;BME280;37397;53.226;10.400;2023-02-23T14:46:00;100836.16;;;10.01;78.36